TimeEEST,TemperatureF,Dew PointF,Humidity,Sea Level PressureIn,VisibilityMPH,Wind Direction,Wind SpeedMPH,Gust SpeedMPH,PrecipitationIn,Events,Conditions,WindDirDegrees,DateUTC
12:00 AM,47,38,62,30.04,6,East,6.7,,,,,90,2010-04-14 21:00:00
12:00 AM,46.4,42.8,87,30.01,-9999.0,ESE,8.1,-,N/A,,Clear,120,2010-04-14 21:00:00
12:30 AM,44.6,42.8,93,30.01,-9999.0,ESE,8.1,-,N/A,,Clear,110,2010-04-14 21:30:00
1:00 AM,44,38,72,30.03,6,East,6.7,,,,,90,2010-04-14 22:00:00
1:00 AM,44.6,42.8,93,30.01,-9999.0,East,5.8,-,N/A,,Clear,90,2010-04-14 22:00:00
1:30 AM,42.8,42.8,100,30.01,-9999.0,East,5.8,-,N/A,,Clear,90,2010-04-14 22:30:00
2:00 AM,42,39,86,30.04,6,ENE,4.5,,,,Partly Cloudy,70,2010-04-14 23:00:00
2:00 AM,42.8,42.8,100,30.01,-9999.0,East,4.6,-,N/A,,Clear,90,2010-04-14 23:00:00
2:30 AM,44.6,42.8,93,29.98,-9999.0,East,4.6,-,N/A,,Clear,90,2010-04-14 23:30:00
3:00 AM,43,40,84,30.02,6,East,4.5,,,,Mostly Cloudy,80,2010-04-15 00:00:00
4:00 AM,42,40,90,30.00,6,ENE,6.7,,,,Mostly Cloudy,70,2010-04-15 01:00:00
4:00 AM,42.8,42.8,100,29.98,5.0,East,6.9,-,N/A,,Unknown,90,2010-04-15 01:00:00
4:30 AM,44.6,42.8,93,29.95,5.0,ENE,6.9,-,N/A,,Partly Cloudy,70,2010-04-15 01:30:00
5:00 AM,42,42,98,30.00,6,NE,4.5,,,,Overcast,50,2010-04-15 02:00:00
5:00 AM,42.8,42.8,100,29.98,5.0,ENE,4.6,-,N/A,,Scattered Clouds,70,2010-04-15 02:00:00
5:30 AM,42.8,42.8,100,29.95,4.3,East,8.1,-,N/A,,Scattered Clouds,80,2010-04-15 02:30:00
6:00 AM,42,42,99,29.99,6,NE,6.7,,,,Partly Cloudy,50,2010-04-15 03:00:00
6:00 AM,42.8,42.8,100,29.95,3.1,East,8.1,-,N/A,,Scattered Clouds,90,2010-04-15 03:00:00
6:30 AM,42.8,41.0,93,29.95,1.9,East,6.9,-,N/A,,Scattered Clouds,80,2010-04-15 03:30:00
7:00 AM,41,41,100,29.99,2,ENE,6.7,,,,Mist,60,2010-04-15 04:00:00
7:00 AM,42.8,41.0,93,29.95,1.9,ENE,8.1,-,N/A,,Mostly Cloudy,70,2010-04-15 04:00:00
7:30 AM,42.8,42.8,100,29.95,1.9,East,10.4,-,N/A,,Mostly Cloudy,80,2010-04-15 04:30:00
8:00 AM,43,43,100,30.00,2,ENE,6.7,,,,Mist,70,2010-04-15 05:00:00
8:00 AM,44.6,42.8,93,29.95,1.9,ENE,9.2,-,N/A,,Overcast,70,2010-04-15 05:00:00
8:30 AM,44.6,44.6,100,29.95,1.9,East,9.2,-,N/A,,Mostly Cloudy,90,2010-04-15 05:30:00
9:00 AM,45,44,96,30.00,2,ENE,6.7,,,,Mist,60,2010-04-15 06:00:00
9:00 AM,46.4,46.4,100,29.95,2.2,East,13.8,-,N/A,,Mostly Cloudy,90,2010-04-15 06:00:00
9:30 AM,48.2,46.4,93,29.98,2.5,East,8.1,-,N/A,,Mostly Cloudy,90,2010-04-15 06:30:00
10:00 AM,47,44,86,30.00,2,ENE,6.7,,,,Mist,70,2010-04-15 07:00:00
10:00 AM,48.2,48.2,100,29.95,3.1,East,9.2,-,N/A,,Mostly Cloudy,90,2010-04-15 07:00:00
10:30 AM,50.0,48.2,94,29.95,3.7,East,12.7,-,N/A,,Mostly Cloudy,80,2010-04-15 07:30:00
11:00 AM,49,44,76,29.99,2,ENE,8.9,,,,Mist,60,2010-04-15 08:00:00
11:00 AM,51.8,48.2,88,29.95,5.0,East,12.7,-,N/A,,Mostly Cloudy,100,2010-04-15 08:00:00
11:30 AM,51.8,48.2,88,29.95,6.2,East,12.7,-,N/A,,Mostly Cloudy,90,2010-04-15 08:30:00
12:00 PM,52,43,61,29.98,6,ENE,8.9,,,,Overcast,60,2010-04-15 09:00:00
12:00 PM,55.4,50.0,82,29.95,6.2,East,11.5,-,N/A,,Mostly Cloudy,80,2010-04-15 09:00:00
12:30 PM,55.4,48.2,77,29.95,6.2,East,11.5,-,N/A,,Mostly Cloudy,80,2010-04-15 09:30:00
1:00 PM,54,42,54,29.98,6,ENE,8.9,,,,Overcast,60,2010-04-15 10:00:00
1:00 PM,57.2,50.0,77,29.92,6.2,East,12.7,-,N/A,,Mostly Cloudy,90,2010-04-15 10:00:00
1:30 PM,57.2,50.0,77,29.92,6.2,ESE,13.8,-,N/A,,Mostly Cloudy,110,2010-04-15 10:30:00
2:00 PM,56,43,51,29.96,6,ENE,8.9,,,,Overcast,60,2010-04-15 11:00:00
2:00 PM,57.2,50.0,77,29.92,6.2,East,10.4,-,N/A,Rain,Light Rain,100,2010-04-15 11:00:00
2:30 PM,57.2,51.8,82,29.92,5.0,East,5.8,-,N/A,Rain,Light Rain,80,2010-04-15 11:30:00
3:00 PM,55,45,61,29.96,6,NE,4.5,,,Rain,Light Rain Showers,50,2010-04-15 12:00:00
3:00 PM,57.2,51.8,82,29.95,5.0,NE,3.5,-,N/A,Rain,Light Rain,40,2010-04-15 12:00:00
3:30 PM,55.4,53.6,94,29.95,5.0,North,5.8,-,N/A,Rain,Light Rain,350,2010-04-15 12:30:00
4:00 PM,53,48,76,29.97,6,NNW,4.5,,,Rain,Light Rain Showers,340,2010-04-15 13:00:00
4:00 PM,53.6,53.6,100,29.92,6.2,North,6.9,-,N/A,,Scattered Clouds,360,2010-04-15 13:00:00
4:30 PM,53.6,51.8,94,29.92,6.2,North,6.9,-,N/A,,Scattered Clouds,360,2010-04-15 13:30:00
5:00 PM,52,48,81,29.95,6,NNW,8.9,,,Rain,Light Rain Showers,340,2010-04-15 14:00:00
5:00 PM,53.6,51.8,94,29.92,5.0,NNE,10.4,-,N/A,Rain,Light Rain,20,2010-04-15 14:00:00
5:30 PM,51.8,51.8,100,29.92,5.0,NNE,8.1,-,N/A,,Overcast,20,2010-04-15 14:30:00
6:00 PM,51,48,85,29.94,6,North,6.7,,,,Partly Cloudy,10,2010-04-15 15:00:00
6:00 PM,53.6,51.8,94,29.92,4.3,North,4.6,-,N/A,,Overcast,10,2010-04-15 15:00:00
6:30 PM,51.8,51.8,100,29.92,4.3,North,3.5,-,N/A,Rain,Light Rain,360,2010-04-15 15:30:00
7:00 PM,51,48,87,29.94,6,North,4.5,,,,Overcast,350,2010-04-15 16:00:00
7:00 PM,51.8,51.8,100,29.92,4.3,NNE,3.5,-,N/A,,Mostly Cloudy,20,2010-04-15 16:00:00
7:30 PM,51.8,51.8,100,29.92,4.3,North,4.6,-,N/A,Rain,Light Rain,350,2010-04-15 16:30:00
8:00 PM,51,49,88,29.94,2,NNW,4.5,,,,Mist,340,2010-04-15 17:00:00
8:00 PM,51.8,51.8,100,29.92,6.2,NNE,3.5,-,N/A,,Scattered Clouds,20,2010-04-15 17:00:00
8:30 PM,51.8,51.8,100,29.92,4.3,Variable,2.3,-,N/A,,Unknown,0,2010-04-15 17:30:00
9:00 PM,50,48,91,29.94,6,NNW,2.2,,,,Partly Cloudy,340,2010-04-15 18:00:00
9:00 PM,51.8,50.0,94,29.92,3.7,WNW,3.5,-,N/A,,Unknown,290,2010-04-15 18:00:00
9:30 PM,51.8,50.0,94,29.92,3.1,WNW,3.5,-,N/A,,Mist,290,2010-04-15 18:30:00
10:00 PM,49,48,95,29.96,6,West,2.2,,,,Overcast,270,2010-04-15 19:00:00
10:00 PM,50.0,50.0,100,29.95,2.5,WNW,4.6,-,N/A,,Mist,300,2010-04-15 19:00:00
10:30 PM,50.0,50.0,100,29.92,2.5,WNW,4.6,-,N/A,,Mist,290,2010-04-15 19:30:00
11:00 PM,48,48,99,29.96,6,West,2.2,,,,Overcast,260,2010-04-15 20:00:00
11:00 PM,50.0,50.0,100,29.92,2.5,WNW,3.5,-,N/A,,Mist,300,2010-04-15 20:00:00
11:30 PM,50.0,50.0,100,29.92,2.5,West,3.5,-,N/A,,Mist,280,2010-04-15 20:30:00